Time;durP1;ratioP1;P1;durP2;ratioP2;P2;SDS_P1;SDS_P2;PMS_P1;PMS_P2;Temp;Humidity;BMP_temperature;BMP_pressure;BME280_temperature;BME280_humidity;BME280_pressure;Samples;Min_cycle;Max_cycle;Signal;HPM_P1;HPM_P2
2022/08/14 00:00:14;;;;;;;13.25;10.72;;;;;;;20.58;80.89;100117.18;1631298;88;26961;-76
2022/08/14 00:02:43;;;;;;;13.43;10.78;;;;;;;20.57;81.06;100111.47;1631259;88;25613;-76
2022/08/14 00:05:12;;;;;;;12.13;10.75;;;;;;;20.57;81.09;100110.91;1631274;88;25468;-76
2022/08/14 00:07:39;;;;;;;;;;;;;;;20.57;81.08;100111.47;1633769;88;25694;-76
2022/08/14 00:10:10;;;;;;;13.55;10.85;;;;;;;20.56;81.31;100109.91;1631359;87;25432;-76
2022/08/14 00:12:41;;;;;;;14.60;11.08;;;;;;;20.55;81.30;100107.76;1631322;88;27380;-76
2022/08/14 00:15:22;;;;;;;10.95;9.85;;;;;;;20.55;81.49;100105.58;1631260;88;25783;-76
2022/08/14 00:17:51;;;;;;;12.63;10.90;;;;;;;20.55;81.35;100098.70;1631163;87;25421;-76
2022/08/14 00:20:22;;;;;;;12.58;11.15;;;;;;;20.53;81.37;100099.89;1631399;88;26188;-76
2022/08/14 00:22:48;;;;;;;12.55;10.88;;;;;;;20.53;81.41;100100.45;1631314;88;25639;-76
2022/08/14 00:25:14;;;;;;;14.40;12.37;;;;;;;20.52;81.40;100098.30;1631307;88;27445;-76
2022/08/14 00:27:40;;;;;;;11.63;10.43;;;;;;;20.51;81.30;100091.81;1631192;88;25656;-75
2022/08/14 00:30:09;;;;;;;11.88;10.48;;;;;;;20.51;81.26;100093.19;1605617;88;25499;-76
2022/08/14 00:32:36;;;;;;;11.48;10.30;;;;;;;20.50;81.29;100088.29;1631358;88;25697;-76
2022/08/14 00:35:05;;;;;;;11.78;10.65;;;;;;;20.51;81.32;100088.48;1631285;88;25451;-76
2022/08/14 00:37:32;;;;;;;;;;;;;;;20.50;81.29;100086.91;1633752;88;27615;-76
2022/08/14 00:40:00;;;;;;;12.70;9.93;;;;;;;20.50;81.39;100086.91;1631140;88;25566;-76
2022/08/14 00:42:28;;;;;;;12.98;10.45;;;;;;;20.48;81.40;100082.39;1631270;88;25496;-76
2022/08/14 00:44:55;;;;;;;14.00;10.40;;;;;;;20.50;81.47;100084.77;1631254;88;26492;-76
2022/08/14 00:47:27;;;;;;;16.07;10.60;;;;;;;20.49;81.42;100081.20;1631276;88;25615;-76
2022/08/14 00:49:55;;;;;;;13.05;10.05;;;;;;;20.49;81.13;100080.42;1631620;87;27335;-76
2022/08/14 00:52:22;;;;;;;11.85;9.03;;;;;;;20.49;81.19;100079.05;1631181;88;25496;-76
2022/08/14 00:54:54;;;;;;;12.40;9.83;;;;;;;20.48;81.05;100079.64;1631269;88;25484;-76
2022/08/14 00:57:23;;;;;;;10.98;9.68;;;;;;;20.48;81.02;100071.41;1631249;88;26339;-76
2022/08/14 00:59:50;;;;;;;12.18;10.18;;;;;;;20.48;80.89;100078.27;1631414;88;25428;-76
2022/08/14 01:02:23;;;;;;;14.30;10.53;;;;;;;20.48;80.77;100080.21;1631228;88;27333;-76
2022/08/14 01:04:47;;;;;;;12.35;10.10;;;;;;;20.47;81.16;100074.53;1631162;87;25773;-76
2022/08/14 01:07:19;;;;;;;10.65;9.55;;;;;;;20.46;81.35;100069.60;1631248;88;25566;-76
2022/08/14 01:09:49;;;;;;;10.43;9.35;;;;;;;20.46;81.16;100054.49;1631206;87;25712;-76
2022/08/14 01:12:17;;;;;;;12.10;9.58;;;;;;;20.45;81.01;100059.80;1631138;87;25455;-76
2022/08/14 01:14:44;;;;;;;11.20;9.20;;;;;;;20.44;80.89;100063.70;1631225;88;27448;-76
2022/08/14 01:17:12;;;;;;;11.40;9.50;;;;;;;20.43;80.86;100061.34;1626902;87;25695;-76
2022/08/14 01:22:23;;;;;;;12.73;10.03;;;;;;;20.40;80.65;100055.23;1631214;88;25639;-76
2022/08/14 01:24:50;;;;;;;11.78;9.40;;;;;;;20.38;80.61;100052.89;1631239;88;25577;-76
2022/08/14 01:27:20;;;;;;;14.28;9.68;;;;;;;20.36;80.61;100052.45;1631287;88;27595;-76
2022/08/14 01:29:51;;;;;;;13.72;10.00;;;;;;;20.33;80.52;100045.78;1631171;88;25668;-76
2022/08/14 01:32:20;;;;;;;11.38;9.55;;;;;;;20.31;80.41;100051.44;1631281;88;25436;-76
2022/08/14 01:34:53;;;;;;;11.67;9.70;;;;;;;20.28;80.47;100048.11;1631449;88;25633;-76
2022/08/14 01:37:24;;;;;;;13.10;9.20;;;;;;;20.24;80.55;100048.05;1630927;88;25421;-76
2022/08/14 01:39:52;;;;;;;16.32;10.05;;;;;;;20.21;80.57;100050.21;1631189;88;27405;-76
2022/08/14 01:42:19;;;;;;;14.73;10.40;;;;;;;20.20;80.68;100047.84;1631197;88;25630;-76
2022/08/14 01:44:51;;;;;;;10.95;9.10;;;;;;;20.16;80.94;100056.05;1631208;88;25596;-76
2022/08/14 01:47:17;;;;;;;12.82;10.32;;;;;;;20.12;80.78;100058.74;1631160;88;25692;-76
2022/08/14 01:49:44;;;;;;;11.75;9.63;;;;;;;20.11;81.01;100057.78;1631262;88;25612;-76
2022/08/14 01:52:11;;;;;;;10.90;9.68;;;;;;;20.08;80.87;100059.91;1631212;88;26956;-76
2022/08/14 01:54:38;;;;;;;13.08;10.00;;;;;;;20.06;80.82;100066.36;1631196;88;25414;-76
2022/08/14 01:57:09;;;;;;;9.85;8.83;;;;;;;20.03;80.85;100059.66;1631259;88;25563;-77
2022/08/14 01:59:33;;;;;;;12.33;9.23;;;;;;;20.03;80.90;100069.86;1631207;87;25688;-76
2022/08/14 02:02:11;;;;;;;12.90;9.20;;;;;;;20.00;80.84;100071.39;1631238;88;25589;-77
2022/08/14 02:04:35;;;;;;;11.10;8.88;;;;;;;19.99;80.95;100067.65;1631151;87;27438;-76
2022/08/14 02:07:04;;;;;;;12.95;9.73;;;;;;;19.97;81.08;100068.02;1631226;88;25654;-76
2022/08/14 02:09:34;;;;;;;;;;;;;;;19.97;81.23;100076.26;1633648;88;25481;-76
2022/08/14 02:11:58;;;;;;;10.15;9.15;;;;;;;19.96;81.21;100073.33;1631215;87;25650;-76
2022/08/14 02:14:24;;;;;;;13.72;9.20;;;;;;;19.93;81.22;100072.70;1631316;88;25650;-76
2022/08/14 02:16:52;;;;;;;9.93;8.88;;;;;;;19.91;81.23;100068.18;1631288;88;27376;-76
2022/08/14 02:19:23;;;;;;;12.00;9.00;;;;;;;19.91;81.34;100071.70;1631133;88;25702;-76
2022/08/14 02:21:56;;;;;;;10.20;8.58;;;;;;;19.92;81.35;100065.62;1631225;88;25572;-77
2022/08/14 02:24:28;;;;;;;15.05;10.40;;;;;;;19.91;81.39;100059.95;1631173;88;25644;-76
2022/08/14 02:26:58;;;;;;;11.15;9.68;;;;;;;19.89;81.71;100058.17;1631238;88;25689;-77
2022/08/14 02:29:28;;;;;;;11.10;9.08;;;;;;;19.89;81.65;100048.56;1631166;88;28163;-76
2022/08/14 02:31:59;;;;;;;11.95;9.73;;;;;;;19.87;81.59;100047.56;1631118;88;25661;-76
2022/08/14 02:34:31;;;;;;;13.80;9.53;;;;;;;19.86;81.73;100048.72;1631214;88;25432;-76
2022/08/14 02:37:05;;;;;;;14.03;10.15;;;;;;;19.86;81.72;100049.31;1630948;87;25678;-76
2022/08/14 02:39:44;;;;;;;14.07;9.98;;;;;;;19.85;81.71;100048.50;1630819;88;25427;-77
2022/08/14 02:42:15;;;;;;;12.03;10.18;;;;;;;19.84;81.86;100038.71;1626475;88;29609;-75
2022/08/14 02:44:43;;;;;;;10.48;9.05;;;;;;;19.84;81.80;100043.42;1626345;88;25741;-75
2022/08/14 02:47:10;;;;;;;11.50;9.65;;;;;;;19.83;81.84;100048.09;1626368;88;25672;-75
2022/08/14 02:49:37;;;;;;;14.47;9.73;;;;;;;19.83;81.97;100040.46;1626286;88;26390;-75
2022/08/14 02:52:06;;;;;;;14.30;9.28;;;;;;;19.81;81.99;100037.31;1626397;88;25655;-76
2022/08/14 02:54:34;;;;;;;;;;;;;;;19.80;81.98;100041.98;1628787;88;27314;-76
2022/08/14 02:57:05;;;;;;;15.75;9.05;;;;;;;19.79;82.06;100037.69;1590790;90;25731;-77
2022/08/14 02:59:35;;;;;;;9.48;8.30;;;;;;;19.76;82.09;100038.44;1590917;89;25453;-76
2022/08/14 03:02:03;;;;;;;13.70;9.55;;;;;;;19.74;81.95;100038.81;1586222;90;25817;-77
2022/08/14 03:04:29;;;;;;;10.72;9.63;;;;;;;19.71;82.04;100032.67;1626489;88;25491;-77
2022/08/14 03:06:57;;;;;;;11.53;9.45;;;;;;;19.71;82.18;100027.77;1626481;88;27308;-76
2022/08/14 03:09:24;;;;;;;11.75;9.13;;;;;;;19.69;82.19;100026.00;1626345;88;26832;-77
2022/08/14 03:11:51;;;;;;;15.25;10.55;;;;;;;19.69;82.28;100028.73;1626483;88;25509;-77
2022/08/14 03:14:18;;;;;;;11.63;9.68;;;;;;;19.69;82.36;100030.11;1626424;88;26234;-76
2022/08/14 03:16:44;;;;;;;11.40;9.58;;;;;;;19.68;82.27;100027.15;1608172;88;25669;-76
2022/08/14 03:19:10;;;;;;;11.18;9.95;;;;;;;19.66;82.43;100023.41;1626465;88;27380;-77
2022/08/14 03:21:38;;;;;;;14.58;10.40;;;;;;;19.63;82.52;100022.81;1626399;88;25596;-77
2022/08/14 03:24:10;;;;;;;12.20;9.80;;;;;;;19.65;82.64;100025.96;1626471;88;25635;-77
2022/08/14 03:26:41;;;;;;;12.13;9.70;;;;;;;19.65;82.74;100028.70;1626443;88;25643;-77
2022/08/14 03:29:11;;;;;;;10.35;9.23;;;;;;;19.64;82.79;100021.62;1626482;88;25622;-76
2022/08/14 03:31:39;;;;;;;10.68;9.55;;;;;;;19.64;82.75;100026.34;1626407;88;27500;-76
2022/08/14 03:34:09;;;;;;;11.20;9.98;;;;;;;19.64;82.80;100028.48;1626345;88;25619;-76
2022/08/14 03:36:38;;;;;;;13.83;9.25;;;;;;;19.64;82.93;100018.11;1626488;88;25543;-76
2022/08/14 03:39:06;;;;;;;;;;;;;;;19.64;82.95;100020.26;1628856;88;25698;-76
2022/08/14 03:41:34;;;;;;;11.65;9.20;;;;;;;19.64;83.21;100018.89;1626490;88;25626;-76
2022/08/14 03:44:03;;;;;;;12.85;10.72;;;;;;;19.63;83.20;100017.89;1626480;88;28052;-77
2022/08/14 03:46:34;;;;;;;11.63;10.43;;;;;;;19.64;83.35;100012.03;1626399;88;25623;-76
2022/08/14 03:49:03;;;;;;;10.90;9.43;;;;;;;19.65;83.39;100015.55;1626437;88;25461;-77
2022/08/14 03:51:32;;;;;;;9.80;8.80;;;;;;;19.66;83.50;100012.44;1626597;88;25640;-77
2022/08/14 03:54:02;;;;;;;11.40;9.90;;;;;;;19.68;83.44;100016.17;1626886;88;25586;-76
2022/08/14 03:56:28;;;;;;;16.20;9.90;;;;;;;19.69;83.62;100013.06;1626942;88;27387;-77
2022/08/14 03:59:08;;;;;;;10.53;9.43;;;;;;;19.71;83.60;100017.58;1627073;88;25706;-77
2022/08/14 04:01:28;;;;;;;16.75;10.35;;;;;;;19.72;83.57;100009.56;1627276;88;25481;-76
2022/08/14 04:04:05;;;;;;;12.75;9.85;;;;;;;19.74;83.70;100018.23;1627351;88;25607;-76
2022/08/14 04:06:24;;;;;;;12.90;10.08;;;;;;;19.76;83.78;100020.01;1627130;88;25584;-76
2022/08/14 04:08:52;;;;;;;12.78;9.63;;;;;;;19.77;83.83;100020.22;1627598;88;27387;-76
2022/08/14 04:11:19;;;;;;;11.97;9.78;;;;;;;19.81;83.87;100020.25;1627406;88;25650;-77
2022/08/14 04:13:48;;;;;;;13.28;9.13;;;;;;;19.83;83.85;100021.25;1627417;88;25435;-76
2022/08/14 04:16:23;;;;;;;13.13;9.90;;;;;;;19.84;83.88;100016.76;1627607;88;25673;-76
2022/08/14 04:18:51;;;;;;;11.45;9.80;;;;;;;19.88;83.92;100026.39;1625685;88;25423;-76
2022/08/14 04:21:23;;;;;;;13.38;9.80;;;;;;;19.89;83.96;100015.62;1626507;88;27170;-76
2022/08/14 04:23:48;;;;;;;12.45;9.63;;;;;;;19.92;83.84;100029.95;1626344;88;25598;-76
2022/08/14 04:26:21;;;;;;;16.42;11.33;;;;;;;19.93;83.73;100031.53;1626431;88;25495;-76
2022/08/14 04:28:49;;;;;;;11.30;10.20;;;;;;;19.94;83.80;100033.91;1626398;88;25670;-76
2022/08/14 04:31:19;;;;;;;12.25;9.45;;;;;;;19.99;83.98;100033.34;1626592;88;25472;-76
2022/08/14 04:33:46;;;;;;;13.18;10.30;;;;;;;20.00;83.96;100035.70;1625974;88;27425;-76
2022/08/14 04:36:13;;;;;;;14.38;10.45;;;;;;;20.03;84.14;100036.92;1626076;88;25736;-76
2022/08/14 04:44:09;;;;;;;14.65;10.08;;;;;;;20.10;84.08;100038.34;1631305;88;25416;-76
2022/08/14 04:46:36;;;;;;;16.85;9.93;;;;;;;20.14;83.97;100037.21;1631210;88;27323;-76
2022/08/14 04:49:05;;;;;;;14.45;9.88;;;;;;;20.18;83.99;100036.45;1605371;88;25480;-76
2022/08/14 04:51:32;;;;;;;14.33;10.50;;;;;;;20.21;83.88;100032.36;1631265;88;25583;-76
2022/08/14 04:54:00;;;;;;;12.95;10.45;;;;;;;20.24;84.01;100038.44;1631229;88;25677;-76
2022/08/14 04:56:27;;;;;;;13.25;10.23;;;;;;;20.29;84.10;100043.58;1631237;88;25749;-76
2022/08/14 04:59:03;;;;;;;14.07;10.70;;;;;;;20.31;83.94;100048.70;1631193;88;28098;-76
2022/08/14 05:01:29;;;;;;;15.38;10.15;;;;;;;20.34;83.91;100054.80;1631238;88;25623;-76
2022/08/14 05:03:56;;;;;;;16.55;10.55;;;;;;;20.39;84.12;100050.92;1631307;88;25612;-76
2022/08/14 05:06:22;;;;;;;16.12;11.15;;;;;;;20.41;84.00;100049.36;1631171;88;25734;-77
2022/08/14 05:08:48;;;;;;;14.83;10.38;;;;;;;20.44;83.98;100049.19;1631246;88;25630;-76
2022/08/14 05:11:18;;;;;;;12.23;10.78;;;;;;;20.49;84.17;100046.09;1631254;88;28057;-77
2022/08/14 05:13:43;;;;;;;12.35;10.82;;;;;;;20.55;84.25;100043.76;1631282;87;25770;-76
2022/08/14 05:16:11;;;;;;;14.55;10.65;;;;;;;20.62;84.40;100035.02;1631306;88;25496;-77
2022/08/14 05:18:39;;;;;;;13.00;11.03;;;;;;;20.68;84.25;100036.81;1631511;88;25758;-77
2022/08/14 05:21:08;;;;;;;12.50;11.05;;;;;;;20.76;84.31;100032.94;1631257;88;25402;-77
2022/08/14 05:23:39;;;;;;;13.18;11.75;;;;;;;20.81;84.29;100029.82;1631285;88;28063;-76
2022/08/14 05:26:16;;;;;;;15.50;11.85;;;;;;;20.87;84.14;100027.48;1631267;88;25419;-77
2022/08/14 05:28:44;;;;;;;14.25;12.35;;;;;;;20.94;84.02;100030.85;1630861;88;25430;-76
2022/08/14 05:31:16;;;;;;;13.68;11.78;;;;;;;20.99;84.06;100034.61;1631127;88;25624;-76
2022/08/14 05:33:41;;;;;;;13.62;12.10;;;;;;;21.05;84.21;100038.58;1631200;87;25642;-77
2022/08/14 05:36:10;;;;;;;17.27;14.03;;;;;;;21.12;84.40;100029.56;1631172;88;28013;-75
2022/08/14 05:38:43;;;;;;;18.85;14.63;;;;;;;21.16;84.39;100018.76;1631182;88;25443;-78
2022/08/14 05:41:14;;;;;;;21.37;15.18;;;;;;;21.23;84.23;100027.05;1630476;87;25466;-77
2022/08/14 05:43:43;;;;;;;19.30;14.93;;;;;;;21.31;84.21;100030.60;1626171;88;25692;-76
2022/08/14 05:46:12;;;;;;;17.87;14.13;;;;;;;21.32;83.92;100028.62;1626661;88;25586;-77
2022/08/14 05:48:39;;;;;;;;;;;;;;;21.38;84.01;100024.34;1628891;88;27326;-76
2022/08/14 05:51:05;;;;;;;15.65;13.75;;;;;;;21.43;84.05;100026.70;1626350;87;25845;-77
2022/08/14 05:53:32;;;;;;;15.60;13.90;;;;;;;21.45;83.64;100035.35;1626370;88;25621;-77
2022/08/14 05:55:59;;;;;;;20.08;14.50;;;;;;;21.45;83.79;100024.34;1626425;88;26360;-77
2022/08/14 05:58:25;;;;;;;19.37;14.75;;;;;;;21.50;83.80;100024.00;1607980;88;25674;-76
2022/08/14 06:00:54;;;;;;;18.62;15.45;;;;;;;21.54;83.79;100022.05;1626406;88;27401;-76
2022/08/14 06:03:22;;;;;;;22.60;14.50;;;;;;;21.60;83.91;100020.48;1626477;88;25643;-77
2022/08/14 06:05:53;;;;;;;16.55;14.75;;;;;;;21.68;83.87;100024.64;1626349;88;25477;-78
2022/08/14 06:08:30;;;;;;;19.62;14.38;;;;;;;21.72;83.79;100020.69;1626424;88;25705;-77
2022/08/14 06:11:02;;;;;;;20.30;15.15;;;;;;;21.79;83.78;100019.91;1626490;88;25639;-76
2022/08/14 06:13:31;;;;;;;20.17;15.18;;;;;;;21.89;83.99;100021.11;1626476;88;27445;-76
2022/08/14 06:15:58;;;;;;;18.23;14.58;;;;;;;21.99;83.49;100021.10;1626390;88;25665;-76
2022/08/14 06:18:25;;;;;;;19.27;14.98;;;;;;;22.04;82.85;100015.02;1626417;88;25665;-76
2022/08/14 06:20:53;;;;;;;21.85;15.60;;;;;;;22.04;82.35;100021.30;1626426;88;25629;-77
2022/08/14 06:23:20;;;;;;;19.30;15.63;;;;;;;22.05;82.49;100022.08;1608598;88;25689;-77
2022/08/14 06:25:46;;;;;;;19.15;15.05;;;;;;;22.03;82.06;100025.23;1626604;88;27372;-77
2022/08/14 06:28:19;;;;;;;19.12;14.93;;;;;;;22.01;82.12;100019.34;1626436;88;25683;-77
2022/08/14 06:30:46;;;;;;;17.85;15.32;;;;;;;22.03;82.38;100026.61;1625669;88;25670;-77
2022/08/14 06:33:14;;;;;;;20.17;15.65;;;;;;;22.06;82.72;100020.31;1626551;88;26387;-76
2022/08/14 06:35:41;;;;;;;19.23;15.50;;;;;;;22.11;82.53;100022.67;1626893;88;25766;-77
2022/08/14 06:38:07;;;;;;;20.00;15.63;;;;;;;22.20;82.86;100019.52;1626643;88;27414;-77
2022/08/14 06:40:36;;;;;;;23.38;16.02;;;;;;;22.30;82.98;100025.64;1626559;88;25537;-77
2022/08/14 06:43:11;;;;;;;22.35;15.60;;;;;;;22.37;82.44;100027.03;1609693;87;25685;-76
2022/08/14 06:45:41;;;;;;;21.15;17.62;;;;;;;22.41;82.46;100029.78;1635524;87;25615;-76
2022/08/14 06:48:22;;;;;;;18.82;15.93;;;;;;;22.46;82.08;100032.70;1635593;87;25586;-76
2022/08/14 06:50:52;;;;;;;22.37;15.85;;;;;;;22.53;82.12;100035.47;1635621;87;27550;-77
2022/08/14 06:53:19;;;;;;;18.73;15.65;;;;;;;22.60;82.04;100029.93;1635444;87;25758;-76
2022/08/14 06:55:47;;;;;;;19.25;15.90;;;;;;;22.66;81.82;100028.92;1635603;87;25507;-75
2022/08/14 06:58:20;;;;;;;22.42;15.10;;;;;;;22.77;81.86;100027.53;1635540;87;25681;-77
2022/08/14 07:06:19;;;;;;;24.65;15.08;;;;;;;23.19;81.70;100025.80;1635560;87;25724;-76
2022/08/14 07:08:45;;;;;;;18.57;15.20;;;;;;;23.41;81.29;100027.28;1635561;87;25664;-76
2022/08/14 07:11:12;;;;;;;21.05;15.35;;;;;;;23.57;81.08;100028.16;1635517;87;26163;-75
2022/08/14 07:13:39;;;;;;;16.65;14.63;;;;;;;23.81;81.52;100026.44;1635682;87;25599;-77
2022/08/14 07:16:06;;;;;;;18.30;15.13;;;;;;;24.11;81.20;100025.03;1635525;87;27414;-76
2022/08/14 07:18:34;;;;;;;19.32;14.13;;;;;;;24.40;80.46;100020.63;1635473;87;25596;-76
2022/08/14 07:21:04;;;;;;;16.97;15.18;;;;;;;24.59;78.82;100024.20;1610097;87;32712;-77
2022/08/14 07:23:31;;;;;;;17.20;15.23;;;;;;;24.78;78.10;100026.95;1635562;87;25652;-77
2022/08/14 07:26:00;;;;;;;16.97;15.08;;;;;;;24.98;77.34;100026.34;1635562;87;25500;-77
2022/08/14 07:28:33;;;;;;;18.40;13.78;;;;;;;25.12;77.04;100026.14;1635366;87;27271;-77
2022/08/14 07:31:03;;;;;;;18.70;14.30;;;;;;;25.34;77.34;100031.44;1635538;87;25262;-76
2022/08/14 07:33:39;;;;;;;18.55;15.13;;;;;;;25.58;76.04;100026.73;1635613;87;25413;-77
2022/08/14 07:36:10;;;;;;;18.65;14.18;;;;;;;25.72;75.39;100027.12;1634860;87;25684;-77
2022/08/14 07:38:36;;;;;;;17.65;14.83;;;;;;;25.89;74.64;100032.20;1635544;87;25631;-77
2022/08/14 07:41:04;;;;;;;23.00;15.35;;;;;;;25.96;73.02;100034.09;1609825;87;27342;-76
2022/08/14 07:43:30;;;;;;;21.50;14.70;;;;;;;25.96;72.45;100023.02;1631745;87;25589;-77
2022/08/14 07:45:56;;;;;;;16.95;14.68;;;;;;;25.97;71.90;100023.98;1631389;88;25491;-77
2022/08/14 07:48:23;;;;;;;22.60;20.20;;;;;;;26.03;72.47;100027.05;1631292;88;25674;-76
2022/08/14 07:50:49;;;;;;;17.32;15.40;;;;;;;26.17;72.20;100021.28;1627364;87;25643;-76
2022/08/14 07:53:17;;;;;;;18.92;14.83;;;;;;;26.27;72.11;100019.50;1631783;88;27338;-76
2022/08/14 07:55:45;;;;;;;25.80;18.52;;;;;;;26.37;71.52;100012.98;1631959;88;25215;-76
2022/08/14 07:58:12;;;;;;;18.67;15.32;;;;;;;26.43;70.73;100017.45;1631936;88;25673;-76
2022/08/14 08:00:40;;;;;;;16.67;14.63;;;;;;;26.47;70.29;100020.31;1631911;88;26192;-76
2022/08/14 08:03:08;;;;;;;17.27;14.35;;;;;;;26.52;70.37;100008.58;1631929;88;25238;-76
2022/08/14 08:05:38;;;;;;;20.25;14.53;;;;;;;26.59;70.20;100017.52;1632069;88;27346;-77
2022/08/14 08:08:07;;;;;;;19.10;14.93;;;;;;;26.70;69.81;100017.36;1631554;88;25442;-78
2022/08/14 08:10:37;;;;;;;20.35;13.98;;;;;;;26.74;69.69;100020.06;1605649;88;25647;-77
2022/08/14 08:13:13;;;;;;;18.45;13.62;;;;;;;26.78;69.36;100009.08;1605956;88;25705;-78
2022/08/14 08:15:45;;;;;;;17.27;13.08;;;;;;;26.89;68.97;100013.63;1631507;88;25473;-77
2022/08/14 08:18:14;;;;;;;16.45;14.45;;;;;;;26.86;68.69;100014.48;1631392;88;27386;-77
2022/08/14 08:20:45;;;;;;;18.45;14.23;;;;;;;26.94;68.46;100018.68;1631295;88;25560;-78
2022/08/14 08:23:15;;;;;;;17.70;13.85;;;;;;;27.03;68.44;100025.81;1631283;88;25697;-78
2022/08/14 08:25:46;;;;;;;15.55;13.70;;;;;;;27.14;68.64;100023.60;1631370;88;25696;-78
2022/08/14 08:28:21;;;;;;;18.98;14.53;;;;;;;27.29;68.01;100026.08;1631452;88;25476;-77
2022/08/14 08:30:51;;;;;;;19.35;14.10;;;;;;;27.40;67.68;100021.09;1631340;88;27964;-77
2022/08/14 08:33:20;;;;;;;16.20;14.30;;;;;;;27.38;66.80;100020.13;1631279;88;25589;-77
2022/08/14 08:35:48;;;;;;;16.73;13.70;;;;;;;27.33;66.33;100022.02;1631450;88;32456;-77
2022/08/14 08:38:20;;;;;;;25.50;16.50;;;;;;;27.33;67.08;100027.58;1631388;88;25630;-78
2022/08/14 08:40:48;;;;;;;21.33;17.52;;;;;;;27.36;66.12;100020.37;1630620;88;25498;-78
2022/08/14 08:43:34;;;;;;;18.40;14.15;;;;;;;27.28;65.98;100011.43;1631295;88;27421;-78
2022/08/14 08:46:12;;;;;;;18.48;14.33;;;;;;;27.36;65.98;100017.59;1631200;88;25670;-78
2022/08/14 08:48:55;;;;;;;17.40;13.78;;;;;;;27.39;65.68;100010.56;1631019;88;25496;-78
2022/08/14 08:51:30;;;;;;;14.90;12.85;;;;;;;27.41;65.39;100016.30;1631234;88;26279;-78
2022/08/14 08:54:11;;;;;;;16.55;14.00;;;;;;;27.53;65.45;100005.91;1631140;88;25500;-78
2022/08/14 08:56:45;;;;;;;19.75;13.38;;;;;;;27.76;66.13;100009.14;1631313;88;28073;-78
2022/08/14 08:59:23;;;;;;;18.05;13.78;;;;;;;27.98;65.51;100010.81;1630473;88;25466;-78
2022/08/14 09:02:07;;;;;;;20.30;13.43;;;;;;;28.29;65.05;100003.46;1631306;88;25638;-78
2022/08/14 09:04:41;;;;;;;16.97;13.90;;;;;;;28.37;64.67;100014.58;1631190;88;26410;-78
2022/08/14 09:07:08;;;;;;;19.70;14.05;;;;;;;28.46;64.23;100008.38;1631374;88;25647;-78
2022/08/14 09:09:50;;;;;;;19.73;14.00;;;;;;;28.49;63.21;100004.10;1631333;88;27327;-77
2022/08/14 09:12:06;;;;;;;;;;;;;;;28.65;63.49;100001.89;1633194;88;25632;-77
2022/08/14 09:14:35;;;;;;;16.07;12.85;;;;;;;28.75;62.52;100006.99;1631347;88;25576;-77
2022/08/14 09:17:00;;;;;;;17.70;13.55;;;;;;;28.74;61.74;100004.65;1631293;88;25641;-77
2022/08/14 09:19:27;;;;;;;14.73;12.43;;;;;;;28.64;62.09;100008.70;1631290;88;25661;-77
2022/08/14 09:21:54;;;;;;;17.73;12.95;;;;;;;28.61;61.62;100002.62;1631227;88;28354;-77
2022/08/14 09:24:21;;;;;;;18.85;14.38;;;;;;;28.67;62.88;99999.48;1631252;88;25616;-78
2022/08/14 09:26:48;;;;;;;15.48;13.83;;;;;;;28.99;62.55;99999.76;1631281;88;25603;-78
2022/08/14 09:29:14;;;;;;;15.45;13.48;;;;;;;29.16;61.32;99993.48;1631228;88;25677;-78
2022/08/14 09:31:44;;;;;;;18.45;13.55;;;;;;;29.20;60.75;100001.94;1631423;88;25490;-77
2022/08/14 09:34:37;;;;;;;16.10;13.38;;;;;;;29.26;60.33;99996.59;1631416;88;27449;-77
2022/08/14 09:37:50;;;;;;;14.73;13.32;;;;;;;29.47;59.83;99998.53;1631445;88;25301;-78
2022/08/14 09:40:40;;;;;;;17.20;13.35;;;;;;;29.71;59.86;99992.78;1623159;88;25485;-77
2022/08/14 09:43:43;;;;;;;15.83;13.13;;;;;;;29.75;58.70;99990.64;1622763;88;25564;-78
2022/08/14 09:46:15;;;;;;;17.93;13.07;;;;;;;29.81;59.42;99989.48;1622093;88;25503;-77
2022/08/14 09:48:42;;;;;;;17.37;14.50;;;;;;;30.23;60.12;99989.89;1621882;88;27411;-76
2022/08/14 09:51:13;;;;;;;17.37;13.72;;;;;;;30.34;57.71;99988.88;1622155;88;25292;-78
2022/08/14 09:53:50;;;;;;;16.95;13.65;;;;;;;30.31;56.92;99985.00;1620119;88;25580;-78
2022/08/14 09:56:17;;;;;;;14.55;13.00;;;;;;;30.28;56.62;99987.91;1622384;88;25673;-78
2022/08/14 09:58:47;;;;;;;16.20;12.45;;;;;;;30.44;57.20;99977.20;1622111;88;25703;-78
2022/08/14 10:01:18;;;;;;;18.20;13.38;;;;;;;30.70;57.19;99977.87;1621910;88;27415;-77
2022/08/14 10:03:56;;;;;;;14.73;11.95;;;;;;;31.07;56.18;99977.48;1621603;88;25880;-78
2022/08/14 10:06:27;;;;;;;38.88;35.60;;;;;;;31.36;56.58;99974.16;1621954;88;25475;-78
2022/08/14 10:09:06;;;;;;;14.18;12.60;;;;;;;31.73;52.00;99966.69;1621335;88;25671;-77
2022/08/14 10:11:37;;;;;;;18.27;13.70;;;;;;;31.65;54.05;99969.61;1621345;88;25638;-77
2022/08/14 10:14:19;;;;;;;16.80;13.83;;;;;;;31.46;52.11;99964.57;1621429;88;28065;-77
2022/08/14 10:16:51;;;;;;;15.63;13.75;;;;;;;31.03;52.71;99967.05;1619401;88;25624;-77
2022/08/14 10:19:18;;;;;;;15.23;13.83;;;;;;;30.99;54.56;99964.23;1619814;87;25215;-78
2022/08/14 10:22:00;;;;;;;16.77;13.48;;;;;;;31.09;54.23;99961.04;1619400;88;25868;-77
2022/08/14 10:24:31;;;;;;;23.00;14.00;;;;;;;31.22;54.60;99955.33;1602998;88;25703;-78
2022/08/14 10:27:01;;;;;;;16.70;13.32;;;;;;;31.52;54.22;99960.57;1619052;88;27333;-78
2022/08/14 10:29:36;;;;;;;16.37;13.15;;;;;;;31.77;52.95;99960.34;1619725;88;25672;-80
2022/08/14 10:32:05;;;;;;;17.65;13.45;;;;;;;31.94;52.81;99952.44;1619241;88;25466;-77
2022/08/14 10:34:33;;;;;;;;;;;;;;;32.33;52.61;99956.94;1621729;88;26130;-78
2022/08/14 10:37:06;;;;;;;;;;;;;;;32.52;51.67;99948.52;1622234;88;25243;-78
2022/08/14 10:39:39;;;;;;;16.27;13.55;;;;;;;32.56;50.14;99946.35;1624613;88;27348;-78
2022/08/14 10:42:07;;;;;;;16.42;13.48;;;;;;;32.68;51.35;99948.22;1618619;88;26022;-79
2022/08/14 10:44:39;;;;;;;20.77;14.43;;;;;;;32.98;51.17;99936.45;1630571;87;25652;-78
2022/08/14 10:47:09;;;;;;;17.02;14.03;;;;;;;33.13;50.08;99942.31;1631966;88;25625;-77
2022/08/14 10:49:48;;;;;;;20.05;14.25;;;;;;;33.28;49.39;99943.80;1632240;88;25674;-77
2022/08/14 10:52:19;;;;;;;21.35;14.13;;;;;;;33.55;48.68;99939.30;1629818;88;27529;-77
2022/08/14 10:54:47;;;;;;;16.70;13.95;;;;;;;33.84;49.08;99939.30;1632207;88;25211;-77
2022/08/14 10:57:23;;;;;;;15.95;13.98;;;;;;;33.84;49.08;99939.30;1632982;88;25234;-78
2022/08/14 10:59:57;;;;;;;16.45;13.88;;;;;;;34.02;48.92;99944.76;1606569;88;25693;-77
2022/08/14 11:02:36;;;;;;;17.12;14.33;;;;;;;34.30;47.34;99950.79;1632281;88;25670;-76
2022/08/14 11:05:17;;;;;;;22.42;13.90;;;;;;;34.47;47.58;99935.02;1632483;87;27337;-77
2022/08/14 11:08:01;;;;;;;16.70;15.00;;;;;;;34.90;47.71;99961.41;1631941;88;25615;-77
2022/08/14 11:10:49;;;;;;;16.17;13.72;;;;;;;34.88;45.56;99933.80;1631909;88;25666;-77
2022/08/14 11:13:31;;;;;;;19.02;15.32;;;;;;;34.84;44.99;99940.87;1631824;88;25459;-77
2022/08/14 11:16:00;;;;;;;16.75;14.18;;;;;;;34.48;44.99;99928.77;1628148;88;25684;-78
2022/08/14 11:18:29;;;;;;;21.23;14.25;;;;;;;34.35;44.95;99929.83;1631844;88;27493;-78
2022/08/14 11:20:59;;;;;;;15.98;14.40;;;;;;;34.37;45.77;99921.70;1631844;88;25562;-78
2022/08/14 11:23:37;;;;;;;19.80;13.15;;;;;;;34.72;46.24;99928.07;1632072;88;25493;-78
2022/08/14 11:26:07;;;;;;;16.70;13.80;;;;;;;34.82;45.14;99922.34;1631857;88;25899;-77
2022/08/14 11:28:39;;;;;;;15.00;13.53;;;;;;;34.87;45.25;99927.27;1631696;88;25469;-77
2022/08/14 11:31:09;;;;;;;16.55;13.32;;;;;;;35.12;45.70;99924.46;1631833;88;27387;-77
2022/08/14 11:33:37;;;;;;;18.48;14.25;;;;;;;35.27;44.68;99925.22;1631604;87;25568;-77
2022/08/14 11:36:08;;;;;;;15.50;13.20;;;;;;;35.13;43.75;99921.80;1631623;88;25659;-76
2022/08/14 11:38:41;;;;;;;15.18;13.72;;;;;;;35.06;43.89;99910.34;1605576;88;26200;-76
2022/08/14 11:41:08;;;;;;;16.15;13.70;;;;;;;34.95;43.63;99923.56;1631633;88;25705;-75